KDDC/DDC METAR and TAF weather

Enter ICAO airport designator
Station Type Date Time Source
KDDC METAR 2019/05/21 19:52 UTC NOAA

KDDC 211952Z AUTO 21022G35KT 10SM CLR 18/07 A2928 RMK AO2 PK WND 22035/1943 LTG DSNT NW SLP901 T01830067


Station Type Date Time Source
KDDC Decoded METAR 2019/05/21 19:52 UTC NOAA

DODGE CITY REGIONAL AIRPORT, KS, United States (KDDC) 37-46N 99-58W 789M
May 21, 2019 - 03:52 PM EDT / 2019.05.21 1952 UTC
Wind: from the SSW (210 degrees) at 25 MPH (22 KT) gusting to 40 MPH (35 KT):0
Visibility: 10 mile(s):0
Sky conditions: clear
Weather: Lightning observed
Temperature: 64.9 F (18.3 C)
Dew Point: 44.1 F (6.7 C)
Relative Humidity: 46%
Pressure (altimeter): 29.28 in. Hg (991 hPa)
ob: KDDC 211952Z AUTO 21022G35KT 10SM CLR 18/07 A2928 RMK AO2 PK WND 22035/1943 LTG DSNT NW SLP901 T01830067
cycle: 20

Station Type Date Time Source
KDDC TAF 2019/05/21 18:39 UTC NOAA

TAF KDDC 211736Z 2118/2218 21016G24KT P6SM VCTS SCT020 BKN040CB
FM212000 25021G31KT P6SM VCTS SCT040CB
FM220100 27019G27KT P6SM SCT100
FM220800 27009KT P6SM FEW250

Example: see airport list